SPFZK EPKK-EPWR
Flight info
| Callsign | SPFZK |
|---|---|
| Flight time | N/A |
| Altitude | 6000 |
| Route | LUMVE |
| Aircraft | DA42/L-SBDGRY/S |
Departure
| Time | N/A |
|---|---|
| Airport | Kraków John Paul II International Airport (EPKK) |
Arrival
| Time | 2026-05-03 20:53 |
|---|---|
| Airport | Copernicus Wrocław Airport (EPWR) |
| Time | Latitude | Longitude | Altitude | Speed | Heading |
|---|---|---|---|---|---|
| 2026-05-03 20:15 | 50.60547 | 18.51491 | 5997 ft | 169 kts | 300° |
| 2026-05-03 20:15 | 50.61239 | 18.49992 | 5998 ft | 169 kts | 300° |
| 2026-05-03 20:15 | 50.61931 | 18.48491 | 5998 ft | 169 kts | 300° |
| 2026-05-03 20:15 | 50.62623 | 18.46990 | 5999 ft | 169 kts | 300° |
| 2026-05-03 20:16 | 50.63315 | 18.45488 | 5997 ft | 169 kts | 300° |
| 2026-05-03 20:16 | 50.64005 | 18.43991 | 6001 ft | 169 kts | 300° |
| 2026-05-03 20:16 | 50.64461 | 18.43002 | 5995 ft | 168 kts | 300° |
| 2026-05-03 20:16 | 50.65380 | 18.41002 | 5998 ft | 168 kts | 300° |
| 2026-05-03 20:17 | 50.65835 | 18.40012 | 5996 ft | 168 kts | 300° |
| 2026-05-03 20:17 | 50.66521 | 18.38521 | 5997 ft | 168 kts | 300° |
| 2026-05-03 20:17 | 50.67208 | 18.37026 | 5997 ft | 168 kts | 300° |
| 2026-05-03 20:17 | 50.68119 | 18.35039 | 5999 ft | 169 kts | 300° |
| 2026-05-03 20:18 | 50.68808 | 18.33538 | 5998 ft | 169 kts | 300° |
| 2026-05-03 20:18 | 50.69274 | 18.32520 | 5993 ft | 169 kts | 301° |
| 2026-05-03 20:18 | 50.69963 | 18.31018 | 5996 ft | 169 kts | 300° |
| 2026-05-03 20:18 | 50.70651 | 18.29516 | 5996 ft | 169 kts | 300° |
| 2026-05-03 20:19 | 50.71340 | 18.28011 | 5992 ft | 169 kts | 300° |
| 2026-05-03 20:19 | 50.72028 | 18.26505 | 5996 ft | 169 kts | 301° |
| 2026-05-03 20:19 | 50.72708 | 18.25017 | 5994 ft | 169 kts | 301° |
| 2026-05-03 20:19 | 50.73397 | 18.23511 | 5992 ft | 169 kts | 301° |
| 2026-05-03 20:20 | 50.73963 | 18.21910 | 5990 ft | 167 kts | 292° |
| 2026-05-03 20:20 | 50.74502 | 18.20283 | 5991 ft | 167 kts | 293° |
| 2026-05-03 20:20 | 50.75042 | 18.18660 | 5988 ft | 167 kts | 292° |
| 2026-05-03 20:20 | 50.75580 | 18.17034 | 5987 ft | 167 kts | 293° |
| 2026-05-03 20:21 | 50.76116 | 18.15415 | 5988 ft | 166 kts | 293° |
| 2026-05-03 20:21 | 50.76651 | 18.13797 | 5985 ft | 166 kts | 293° |
| 2026-05-03 20:21 | 50.77186 | 18.12177 | 5987 ft | 167 kts | 293° |
| 2026-05-03 20:21 | 50.77724 | 18.10547 | 5984 ft | 167 kts | 293° |
| 2026-05-03 20:22 | 50.78262 | 18.08918 | 5985 ft | 167 kts | 293° |
| 2026-05-03 20:22 | 50.78801 | 18.07286 | 5981 ft | 167 kts | 293° |
| 2026-05-03 20:22 | 50.79339 | 18.05652 | 5979 ft | 167 kts | 293° |
| 2026-05-03 20:22 | 50.79875 | 18.04027 | 5982 ft | 167 kts | 293° |
| 2026-05-03 20:23 | 50.80411 | 18.02399 | 5982 ft | 167 kts | 293° |
| 2026-05-03 20:23 | 50.80947 | 18.00770 | 5983 ft | 167 kts | 293° |
| 2026-05-03 20:23 | 50.81476 | 17.99161 | 5984 ft | 167 kts | 293° |
| 2026-05-03 20:23 | 50.82012 | 17.97528 | 5984 ft | 167 kts | 293° |
| 2026-05-03 20:24 | 50.82548 | 17.95894 | 5982 ft | 167 kts | 293° |
| 2026-05-03 20:24 | 50.83085 | 17.94261 | 5979 ft | 167 kts | 293° |
| 2026-05-03 20:24 | 50.83619 | 17.92632 | 5979 ft | 167 kts | 293° |
| 2026-05-03 20:24 | 50.84156 | 17.90993 | 5980 ft | 168 kts | 293° |
| 2026-05-03 20:25 | 50.84692 | 17.89356 | 5982 ft | 168 kts | 293° |
| 2026-05-03 20:25 | 50.85229 | 17.87716 | 5980 ft | 168 kts | 293° |
| 2026-05-03 20:25 | 50.85765 | 17.86077 | 5980 ft | 168 kts | 293° |
| 2026-05-03 20:25 | 50.86301 | 17.84438 | 5980 ft | 168 kts | 293° |
| 2026-05-03 20:26 | 50.86836 | 17.82801 | 5979 ft | 167 kts | 293° |
| 2026-05-03 20:26 | 50.87369 | 17.81166 | 5976 ft | 167 kts | 293° |
| 2026-05-03 20:26 | 50.87904 | 17.79528 | 5974 ft | 167 kts | 293° |
| 2026-05-03 20:26 | 50.88437 | 17.77892 | 5973 ft | 167 kts | 293° |
| 2026-05-03 20:27 | 50.88972 | 17.76250 | 5975 ft | 168 kts | 293° |
| 2026-05-03 20:27 | 50.89506 | 17.74608 | 5974 ft | 167 kts | 293° |
| 2026-05-03 20:27 | 50.90040 | 17.72967 | 5977 ft | 167 kts | 293° |
| 2026-05-03 20:27 | 50.90574 | 17.71326 | 5975 ft | 168 kts | 293° |
| 2026-05-03 20:28 | 50.91101 | 17.69705 | 5974 ft | 168 kts | 294° |
| 2026-05-03 20:28 | 50.91717 | 17.68124 | 5972 ft | 169 kts | 297° |
| 2026-05-03 20:28 | 50.92326 | 17.66531 | 5973 ft | 169 kts | 297° |
| 2026-05-03 20:28 | 50.92937 | 17.64942 | 5972 ft | 169 kts | 297° |
| 2026-05-03 20:29 | 50.93550 | 17.63354 | 5972 ft | 169 kts | 297° |
| 2026-05-03 20:29 | 50.94165 | 17.61765 | 5971 ft | 169 kts | 297° |
| 2026-05-03 20:29 | 50.94779 | 17.60176 | 5968 ft | 169 kts | 297° |
| 2026-05-03 20:29 | 50.95390 | 17.58593 | 5969 ft | 168 kts | 297° |
| 2026-05-03 20:30 | 50.95999 | 17.57013 | 5970 ft | 168 kts | 297° |
| 2026-05-03 20:30 | 50.96611 | 17.55427 | 5969 ft | 168 kts | 297° |
| 2026-05-03 20:30 | 50.97221 | 17.53844 | 5965 ft | 169 kts | 297° |
| 2026-05-03 20:30 | 50.97834 | 17.52252 | 5965 ft | 169 kts | 297° |
| 2026-05-03 20:31 | 50.98447 | 17.50660 | 5967 ft | 169 kts | 297° |
| 2026-05-03 20:31 | 50.99059 | 17.49066 | 5968 ft | 169 kts | 297° |
| 2026-05-03 20:31 | 50.99671 | 17.47474 | 5967 ft | 169 kts | 297° |
| 2026-05-03 20:31 | 51.00281 | 17.45888 | 5965 ft | 168 kts | 297° |
| 2026-05-03 20:32 | 51.00889 | 17.44303 | 5964 ft | 168 kts | 297° |
| 2026-05-03 20:32 | 51.01492 | 17.42733 | 5962 ft | 168 kts | 297° |
| 2026-05-03 20:32 | 51.02109 | 17.41125 | 5962 ft | 168 kts | 297° |
| 2026-05-03 20:32 | 51.02717 | 17.39535 | 5960 ft | 168 kts | 297° |
| 2026-05-03 20:33 | 51.03325 | 17.37947 | 5958 ft | 168 kts | 297° |
| 2026-05-03 20:33 | 51.03926 | 17.36377 | 5959 ft | 168 kts | 297° |
| 2026-05-03 20:33 | 51.04535 | 17.34787 | 5958 ft | 168 kts | 297° |
| 2026-05-03 20:33 | 51.05143 | 17.33196 | 5958 ft | 168 kts | 297° |
| 2026-05-03 20:34 | 51.05749 | 17.31607 | 5955 ft | 168 kts | 297° |
| 2026-05-03 20:34 | 51.06359 | 17.30010 | 5952 ft | 169 kts | 297° |
| 2026-05-03 20:34 | 51.06966 | 17.28418 | 5953 ft | 168 kts | 297° |
| 2026-05-03 20:34 | 51.07575 | 17.26824 | 5954 ft | 168 kts | 297° |
| 2026-05-03 20:35 | 51.08182 | 17.25232 | 5952 ft | 168 kts | 297° |
| 2026-05-03 20:35 | 51.08788 | 17.23639 | 5953 ft | 168 kts | 297° |
| 2026-05-03 20:35 | 51.09394 | 17.22046 | 5950 ft | 168 kts | 297° |
| 2026-05-03 20:35 | 51.10000 | 17.20452 | 5949 ft | 168 kts | 297° |
| 2026-05-03 20:36 | 51.10604 | 17.18863 | 5951 ft | 168 kts | 297° |
| 2026-05-03 20:36 | 51.11208 | 17.17273 | 5950 ft | 168 kts | 297° |
| 2026-05-03 20:36 | 51.11813 | 17.15679 | 5951 ft | 168 kts | 297° |
| 2026-05-03 20:36 | 51.12417 | 17.14088 | 5944 ft | 168 kts | 297° |
| 2026-05-03 20:37 | 51.13020 | 17.12497 | 5948 ft | 168 kts | 297° |
| 2026-05-03 20:37 | 51.13605 | 17.10889 | 5944 ft | 167 kts | 291° |
| 2026-05-03 20:37 | 51.14100 | 17.09243 | 5945 ft | 167 kts | 292° |
| 2026-05-03 20:37 | 51.14616 | 17.07592 | 5947 ft | 167 kts | 292° |
| 2026-05-03 20:38 | 51.15129 | 17.05935 | 5948 ft | 166 kts | 292° |
| 2026-05-03 20:38 | 51.15639 | 17.04280 | 5948 ft | 167 kts | 292° |
| 2026-05-03 20:38 | 51.16149 | 17.02617 | 5945 ft | 167 kts | 292° |
| 2026-05-03 20:38 | 51.16658 | 17.00960 | 5947 ft | 167 kts | 292° |
| 2026-05-03 20:39 | 51.17170 | 16.99299 | 5948 ft | 167 kts | 292° |
| 2026-05-03 20:39 | 51.17687 | 16.97613 | 5641 ft | 176 kts | 293° |
| 2026-05-03 20:39 | 51.18240 | 16.95839 | 4695 ft | 179 kts | 292° |
| 2026-05-03 20:39 | 51.18794 | 16.94013 | 3748 ft | 184 kts | 290° |
| 2026-05-03 20:40 | 51.19336 | 16.92246 | 3077 ft | 174 kts | 288° |
| 2026-05-03 20:40 | 51.19851 | 16.90524 | 2949 ft | 166 kts | 288° |
| 2026-05-03 20:40 | 51.20360 | 16.88868 | 2947 ft | 168 kts | 288° |
| 2026-05-03 20:40 | 51.20877 | 16.87190 | 2943 ft | 169 kts | 288° |
| 2026-05-03 20:41 | 51.21391 | 16.85505 | 2947 ft | 169 kts | 288° |
| 2026-05-03 20:41 | 51.21907 | 16.83813 | 2946 ft | 169 kts | 288° |
| 2026-05-03 20:41 | 51.22425 | 16.82119 | 2947 ft | 169 kts | 288° |
| 2026-05-03 20:41 | 51.22938 | 16.80431 | 2945 ft | 169 kts | 288° |
| 2026-05-03 20:42 | 51.23453 | 16.78741 | 2943 ft | 170 kts | 288° |
| 2026-05-03 20:42 | 51.23968 | 16.77049 | 2949 ft | 169 kts | 288° |
| 2026-05-03 20:42 | 51.24481 | 16.75368 | 2945 ft | 169 kts | 288° |
| 2026-05-03 20:42 | 51.24989 | 16.73698 | 2945 ft | 169 kts | 288° |
| 2026-05-03 20:43 | 51.25502 | 16.72010 | 2939 ft | 169 kts | 288° |
| 2026-05-03 20:43 | 51.26013 | 16.70315 | 2942 ft | 169 kts | 288° |
| 2026-05-03 20:43 | 51.26526 | 16.68623 | 2942 ft | 170 kts | 288° |
| 2026-05-03 20:43 | 51.27041 | 16.66920 | 2941 ft | 170 kts | 288° |
| 2026-05-03 20:44 | 51.27561 | 16.65209 | 2940 ft | 172 kts | 288° |
| 2026-05-03 20:44 | 51.28082 | 16.63490 | 2940 ft | 172 kts | 288° |
| 2026-05-03 20:44 | 51.28601 | 16.61772 | 2939 ft | 171 kts | 288° |
| 2026-05-03 20:44 | 51.29091 | 16.60046 | 2936 ft | 168 kts | 282° |
| 2026-05-03 20:45 | 51.29264 | 16.58247 | 2944 ft | 160 kts | 260° |
| 2026-05-03 20:45 | 51.28678 | 16.56964 | 3003 ft | 152 kts | 208° |
| 2026-05-03 20:45 | 51.27636 | 16.56387 | 2839 ft | 160 kts | 200° |
| 2026-05-03 20:45 | 51.26544 | 16.56290 | 2864 ft | 163 kts | 171° |
| 2026-05-03 20:46 | 51.25506 | 16.56978 | 3017 ft | 157 kts | 160° |
| 2026-05-03 20:46 | 51.24545 | 16.57798 | 3119 ft | 157 kts | 158° |
| 2026-05-03 20:46 | 51.23631 | 16.58731 | 3238 ft | 158 kts | 152° |
| 2026-05-03 20:46 | 51.22761 | 16.59840 | 3366 ft | 158 kts | 146° |
| 2026-05-03 20:47 | 51.21948 | 16.60983 | 3519 ft | 157 kts | 147° |
| 2026-05-03 20:47 | 51.21119 | 16.62126 | 3658 ft | 157 kts | 146° |
| 2026-05-03 20:47 | 51.20372 | 16.63410 | 3785 ft | 163 kts | 134° |
| 2026-05-03 20:47 | 51.19640 | 16.64797 | 3983 ft | 156 kts | 141° |
| 2026-05-03 20:48 | 51.18861 | 16.66125 | 3955 ft | 164 kts | 135° |
| 2026-05-03 20:48 | 51.17935 | 16.67105 | 3153 ft | 171 kts | 156° |
| 2026-05-03 20:48 | 51.17099 | 16.68163 | 3405 ft | 141 kts | 144° |
| 2026-05-03 20:48 | 51.16421 | 16.69273 | 3261 ft | 144 kts | 141° |
| 2026-05-03 20:49 | 51.15808 | 16.70572 | 3130 ft | 147 kts | 132° |
| 2026-05-03 20:49 | 51.15341 | 16.71836 | 3260 ft | 117 kts | 126° |
| 2026-05-03 20:49 | 51.15058 | 16.73033 | 3210 ft | 117 kts | 120° |
| 2026-05-03 20:49 | 51.14743 | 16.74298 | 2942 ft | 125 kts | 125° |
| 2026-05-03 20:50 | 51.14377 | 16.75492 | 2875 ft | 118 kts | 130° |
| 2026-05-03 20:50 | 51.14022 | 16.76556 | 2616 ft | 96 kts | 134° |
| 2026-05-03 20:50 | 51.13723 | 16.77485 | 2355 ft | 99 kts | 133° |
| 2026-05-03 20:50 | 51.13392 | 16.78470 | 2129 ft | 104 kts | 135° |
| 2026-05-03 20:51 | 51.13043 | 16.79504 | 1935 ft | 109 kts | 130° |
| 2026-05-03 20:51 | 51.12750 | 16.80594 | 1820 ft | 106 kts | 125° |
| 2026-05-03 20:51 | 51.12465 | 16.81518 | 1591 ft | 91 kts | 133° |
| 2026-05-03 20:51 | 51.12160 | 16.82386 | 1433 ft | 89 kts | 131° |
| 2026-05-03 20:52 | 51.11891 | 16.83279 | 1252 ft | 90 kts | 123° |
| 2026-05-03 20:52 | 51.11614 | 16.84162 | 1048 ft | 88 kts | 123° |
| 2026-05-03 20:52 | 51.11349 | 16.85041 | 834 ft | 86 kts | 120° |
| 2026-05-03 20:52 | 51.11092 | 16.85880 | 616 ft | 85 kts | 122° |
| 2026-05-03 20:53 | 51.10852 | 16.86683 | 402 ft | 72 kts | 122° |
| 2026-05-03 20:53 | 51.10690 | 16.87188 | 398 ft | 35 kts | 116° |
| 2026-05-03 20:53 | 51.10594 | 16.87505 | 397 ft | 41 kts | 112° |
| 2026-05-03 20:53 | 51.10442 | 16.88001 | 398 ft | 51 kts | 114° |
| 2026-05-03 20:54 | 51.10291 | 16.88511 | 400 ft | 52 kts | 115° |
| 2026-05-03 20:54 | 51.09952 | 16.89604 | 399 ft | 60 kts | 117° |
| 2026-05-03 20:54 | 51.09823 | 16.89736 | 398 ft | 16 kts | 205° |
| 2026-05-03 20:55 | 51.09729 | 16.89663 | 398 ft | 15 kts | 205° |
| 2026-05-03 20:55 | 51.09636 | 16.89584 | 398 ft | 13 kts | 231° |
| 2026-05-03 20:55 | 51.09649 | 16.89436 | 398 ft | 18 kts | 277° |
| 2026-05-03 20:55 | 51.09673 | 16.89214 | 398 ft | 22 kts | 280° |
| 2026-05-03 20:56 | 51.09705 | 16.88935 | 398 ft | 29 kts | 281° |
| 2026-05-03 20:56 | 51.09786 | 16.88671 | 398 ft | 26 kts | 313° |
| 2026-05-03 20:56 | 51.09913 | 16.88422 | 398 ft | 26 kts | 307° |
| 2026-05-03 20:56 | 51.09917 | 16.88319 | 398 ft | 0 kts | 50° |